Annapolis, MD (21404)

6:58 PM EST on December 25, 2014 (GMT -0500)
Indian Hills | Change Station
CLOSE
Current Station
Personal Weather Station
Location: Arnold, MD
Elevation: 89 ft
Nearby Weather Stations

Elev 89 ft 39.02 °N, 76.49 °W | Updated 57 seconds ago

Clear
Clear
42.5 °F
Feels Like 42 °F
N
1.0
Wind Variable Wind from West
Gusts 4.0 mph

Today
High -- | Low -- °F
--% Chance of Precip.
Yesterday
High -- | Low -- °F
Precip. -- in
7:23 AM 4:49 PM
Waxing Crescent, 20% visible
Pressure 30.13 in
Visibility 10.0 miles
Clouds Clear
Windchill 42 °F
Dew Point 36 °F
Humidity 76%
Rainfall 0.17 in
Snow Depth Not available.
UV 0 out of 12
Pollen .10 out of 12
Air Quality Not available.
Flu Activity Not available.
METAR KNAK 252354Z AUTO 30006KT 10SM CLR 08/M01 A3013 RMK AO2 SLP203 T00831011 10117 20083 51029

More Conditions Fewer Conditions

Pressure 30.13 in
Visibility 10.0 miles
Clouds Clear
Windchill 42 °F
Dew Point 36 °F
Humidity 76%
Rainfall 0.17 in
Snow Depth Not available.
UV 0 out of 12
Pollen .10 out of 12
Air Quality Not available.
Flu Activity Not available.
METAR KNAK 252354Z AUTO 30006KT 10SM CLR 08/M01 A3013 RMK AO2 SLP203 T00831011 10117 20083 51029

More Conditions Fewer Conditions

10-Day Weather Forecast

Almanac

Astronomy

Dec. 25, 2014 Rise Set
Actual Time
Civil Twilight
Nautical Twilight
Astronomical Twilight
Moon
Length of Visible Light
Length of Day
Tomorrow will be .
, % of the Moon is Illuminated

Today's Extremes

State Highs State Lows

Community

WunderPhotos

Upload Photos

1,780,458 photos uploaded!

WunderBlogs® & News

Nearby

Air Quality

  Air Quality AQ Index Pollutant
Not available.

Snow Depth

Station Depth Elevation

Earthquake Activity

City Distance Mag. Time & Date
Minimum magnitude displayed is 2.5.

Coastal Water Temperatures

Place Temperature

Nearby Weather Stations